sensor_id;sensor_type;location;lat;lon;timestamp;pressure;altitude;pressure_sealevel;temperature;humidity
68474;BME280;55461;52.066;5.194;2022-07-01T00:00:41;101524.0;;;15.4;90.95
68474;BME280;55461;52.066;5.194;2022-07-01T00:02:28;101525.0;;;15.34;90.84
68474;BME280;55461;52.066;5.194;2022-07-01T00:06:01;101507.0;;;15.29;91.18
68474;BME280;55461;52.066;5.194;2022-07-01T00:07:47;101498.0;;;15.46;89.89
68474;BME280;55461;52.066;5.194;2022-07-01T00:09:33;101500.0;;;15.36;89.91
68474;BME280;55461;52.066;5.194;2022-07-01T00:11:20;101507.0;;;15.14;91.71
68474;BME280;55461;52.066;5.194;2022-07-01T00:13:07;101509.0;;;15.24;91.56
68474;BME280;55461;52.066;5.194;2022-07-01T00:14:54;101511.0;;;15.19;91.95
68474;BME280;55461;52.066;5.194;2022-07-01T00:18:29;101509.0;;;15.27;91.19
68474;BME280;55461;52.066;5.194;2022-07-01T00:20:16;101513.0;;;15.19;92.15
68474;BME280;55461;52.066;5.194;2022-07-01T00:22:02;101515.0;;;15.2;91.76
68474;BME280;55461;52.066;5.194;2022-07-01T00:23:49;101514.0;;;15.15;91.7
68474;BME280;55461;52.066;5.194;2022-07-01T00:25:35;101516.0;;;15.33;90.79
68474;BME280;55461;52.066;5.194;2022-07-01T00:27:22;101523.0;;;15.27;90.98
68474;BME280;55461;52.066;5.194;2022-07-01T00:30:56;101532.0;;;15.28;91.24
68474;BME280;55461;52.066;5.194;2022-07-01T00:32:42;101532.0;;;15.34;90.7
68474;BME280;55461;52.066;5.194;2022-07-01T00:34:29;101537.0;;;15.31;90.89
68474;BME280;55461;52.066;5.194;2022-07-01T00:36:15;101535.0;;;15.32;90.97
68474;BME280;55461;52.066;5.194;2022-07-01T00:38:02;101542.0;;;15.27;91.6
68474;BME280;55461;52.066;5.194;2022-07-01T00:41:35;101549.0;;;15.34;91.5
68474;BME280;55461;52.066;5.194;2022-07-01T00:43:23;101555.0;;;15.48;91.06
68474;BME280;55461;52.066;5.194;2022-07-01T00:45:11;101540.0;;;15.55;90.45
68474;BME280;55461;52.066;5.194;2022-07-01T00:47:01;101536.0;;;15.58;90.42
68474;BME280;55461;52.066;5.194;2022-07-01T00:48:49;101535.0;;;15.66;89.8
68474;BME280;55461;52.066;5.194;2022-07-01T00:50:36;101538.0;;;15.56;90.47
68474;BME280;55461;52.066;5.194;2022-07-01T00:54:08;101542.0;;;15.53;90.26
68474;BME280;55461;52.066;5.194;2022-07-01T00:55:54;101542.0;;;15.47;90.01
68474;BME280;55461;52.066;5.194;2022-07-01T00:57:42;101552.0;;;15.35;89.91
68474;BME280;55461;52.066;5.194;2022-07-01T00:59:31;101550.0;;;15.45;90.32
68474;BME280;55461;52.066;5.194;2022-07-01T01:01:19;101543.0;;;15.48;89.97
68474;BME280;55461;52.066;5.194;2022-07-01T01:03:06;101534.0;;;15.36;90.26
68474;BME280;55461;52.066;5.194;2022-07-01T01:06:39;101530.0;;;15.41;89.78
68474;BME280;55461;52.066;5.194;2022-07-01T01:08:26;101531.0;;;15.35;89.76
68474;BME280;55461;52.066;5.194;2022-07-01T01:10:14;101518.0;;;15.42;89.31
68474;BME280;55461;52.066;5.194;2022-07-01T01:12:02;101519.0;;;15.38;89.44
68474;BME280;55461;52.066;5.194;2022-07-01T01:13:48;101518.0;;;15.23;89.12
68474;BME280;55461;52.066;5.194;2022-07-01T01:15:35;101520.0;;;15.23;89.86
68474;BME280;55461;52.066;5.194;2022-07-01T01:19:10;101525.0;;;15.19;89.08
68474;BME280;55461;52.066;5.194;2022-07-01T01:20:56;101517.0;;;15.09;89.38
68474;BME280;55461;52.066;5.194;2022-07-01T01:22:43;101527.0;;;15.16;88.99
68474;BME280;55461;52.066;5.194;2022-07-01T01:24:30;101530.0;;;15.25;88.53
68474;BME280;55461;52.066;5.194;2022-07-01T01:26:18;101535.0;;;15.23;88.87
68474;BME280;55461;52.066;5.194;2022-07-01T01:28:07;101546.0;;;15.2;88.15
68474;BME280;55461;52.066;5.194;2022-07-01T01:31:40;101551.0;;;15.19;89.06
68474;BME280;55461;52.066;5.194;2022-07-01T01:33:26;101551.0;;;15.21;88.87
68474;BME280;55461;52.066;5.194;2022-07-01T01:35:13;101546.0;;;15.07;89.14
68474;BME280;55461;52.066;5.194;2022-07-01T01:36:59;101555.0;;;15.21;88.22
68474;BME280;55461;52.066;5.194;2022-07-01T01:38:46;101565.0;;;15.1;89.23
68474;BME280;55461;52.066;5.194;2022-07-01T01:42:19;101572.0;;;14.83;89.24
68474;BME280;55461;52.066;5.194;2022-07-01T01:44:06;101576.0;;;15.02;88.12
68474;BME280;55461;52.066;5.194;2022-07-01T01:45:52;101575.0;;;15.07;87.96
68474;BME280;55461;52.066;5.194;2022-07-01T01:47:40;101572.0;;;15.14;87.74
68474;BME280;55461;52.066;5.194;2022-07-01T01:49:27;101573.0;;;14.95;89.25
68474;BME280;55461;52.066;5.194;2022-07-01T01:51:13;101571.0;;;14.8;89.9
68474;BME280;55461;52.066;5.194;2022-07-01T01:54:46;101573.0;;;14.84;89.54
68474;BME280;55461;52.066;5.194;2022-07-01T01:56:33;101570.0;;;14.9;89.34
68474;BME280;55461;52.066;5.194;2022-07-01T01:58:20;101569.0;;;14.9;89.69
68474;BME280;55461;52.066;5.194;2022-07-01T02:00:07;101568.0;;;14.81;90.64
68474;BME280;55461;52.066;5.194;2022-07-01T02:01:54;101572.0;;;14.81;90.23
68474;BME280;55461;52.066;5.194;2022-07-01T02:03:41;101569.0;;;14.74;90.18
68474;BME280;55461;52.066;5.194;2022-07-01T02:07:16;101571.0;;;14.8;90.12
68474;BME280;55461;52.066;5.194;2022-07-01T02:09:02;101573.0;;;14.82;89.76
68474;BME280;55461;52.066;5.194;2022-07-01T02:10:49;101572.0;;;14.8;89.79
68474;BME280;55461;52.066;5.194;2022-07-01T02:12:35;101568.0;;;14.8;89.54
68474;BME280;55461;52.066;5.194;2022-07-01T02:14:21;101568.0;;;14.58;90.31
68474;BME280;55461;52.066;5.194;2022-07-01T02:16:07;101563.0;;;14.63;90.52
68474;BME280;55461;52.066;5.194;2022-07-01T02:19:43;101571.0;;;14.65;90.32
68474;BME280;55461;52.066;5.194;2022-07-01T02:21:29;101573.0;;;14.56;90.6
68474;BME280;55461;52.066;5.194;2022-07-01T02:23:16;101567.0;;;14.51;91.1
68474;BME280;55461;52.066;5.194;2022-07-01T02:25:03;101566.0;;;14.54;91.05
68474;BME280;55461;52.066;5.194;2022-07-01T02:26:49;101569.0;;;14.65;90.55
68474;BME280;55461;52.066;5.194;2022-07-01T02:30:23;101565.0;;;14.64;90.43
68474;BME280;55461;52.066;5.194;2022-07-01T02:32:09;101568.0;;;14.62;90.55
68474;BME280;55461;52.066;5.194;2022-07-01T02:33:56;101567.0;;;14.59;90.37
68474;BME280;55461;52.066;5.194;2022-07-01T02:35:43;101571.0;;;14.53;90.96
68474;BME280;55461;52.066;5.194;2022-07-01T02:37:29;101575.0;;;14.54;91.09
68474;BME280;55461;52.066;5.194;2022-07-01T02:39:16;101586.0;;;14.38;91.29
68474;BME280;55461;52.066;5.194;2022-07-01T02:42:49;101589.0;;;14.49;91.18
68474;BME280;55461;52.066;5.194;2022-07-01T02:44:35;101592.0;;;14.44;91.31
68474;BME280;55461;52.066;5.194;2022-07-01T02:46:21;101591.0;;;14.34;91.45
68474;BME280;55461;52.066;5.194;2022-07-01T02:48:09;101600.0;;;14.32;91.66
68474;BME280;55461;52.066;5.194;2022-07-01T02:49:56;101601.0;;;14.42;91.05
68474;BME280;55461;52.066;5.194;2022-07-01T02:51:43;101598.0;;;14.4;91.09
68474;BME280;55461;52.066;5.194;2022-07-01T02:55:17;101603.0;;;14.37;91.09
68474;BME280;55461;52.066;5.194;2022-07-01T02:57:04;101607.0;;;14.26;92.17
68474;BME280;55461;52.066;5.194;2022-07-01T02:58:51;101587.0;;;14.29;91.37
68474;BME280;55461;52.066;5.194;2022-07-01T03:00:37;101570.0;;;14.29;91.55
68474;BME280;55461;52.066;5.194;2022-07-01T03:02:24;101564.0;;;14.09;92.78
68474;BME280;55461;52.066;5.194;2022-07-01T03:05:56;101568.0;;;14.19;92.13
68474;BME280;55461;52.066;5.194;2022-07-01T03:07:43;101578.0;;;14.14;92.09
68474;BME280;55461;52.066;5.194;2022-07-01T03:09:30;101577.0;;;14.18;92.01
68474;BME280;55461;52.066;5.194;2022-07-01T03:11:16;101582.0;;;14.14;92.67
68474;BME280;55461;52.066;5.194;2022-07-01T03:13:03;101591.0;;;14.11;93.41
68474;BME280;55461;52.066;5.194;2022-07-01T03:14:50;101591.0;;;14.07;93.48
68474;BME280;55461;52.066;5.194;2022-07-01T03:18:23;101588.0;;;14.21;93.06
68474;BME280;55461;52.066;5.194;2022-07-01T03:20:11;101575.0;;;14.29;92.43
68474;BME280;55461;52.066;5.194;2022-07-01T03:21:59;101575.0;;;14.29;92.39
68474;BME280;55461;52.066;5.194;2022-07-01T03:23:45;101573.0;;;14.37;92.24
68474;BME280;55461;52.066;5.194;2022-07-01T03:25:31;101580.0;;;14.33;92.15
68474;BME280;55461;52.066;5.194;2022-07-01T03:27:19;101581.0;;;14.23;92.67
68474;BME280;55461;52.066;5.194;2022-07-01T03:30:53;101577.0;;;14.3;92.19
68474;BME280;55461;52.066;5.194;2022-07-01T03:32:39;101575.0;;;14.36;91.84
68474;BME280;55461;52.066;5.194;2022-07-01T03:34:25;101577.0;;;14.2;92.33
68474;BME280;55461;52.066;5.194;2022-07-01T03:36:11;101576.0;;;14.29;92.1
68474;BME280;55461;52.066;5.194;2022-07-01T03:37:58;101584.0;;;14.28;92.14
68474;BME280;55461;52.066;5.194;2022-07-01T03:41:32;101583.0;;;14.16;92.24
68474;BME280;55461;52.066;5.194;2022-07-01T03:43:18;101590.0;;;14.16;92.68
68474;BME280;55461;52.066;5.194;2022-07-01T03:45:05;101591.0;;;14.12;92.75
68474;BME280;55461;52.066;5.194;2022-07-01T03:46:51;101591.0;;;14.16;92.86
68474;BME280;55461;52.066;5.194;2022-07-01T03:48:39;101587.0;;;14.15;92.69
68474;BME280;55461;52.066;5.194;2022-07-01T03:50:26;101597.0;;;14.12;93.09
68474;BME280;55461;52.066;5.194;2022-07-01T03:54:30;101607.0;;;14.23;92.49
68474;BME280;55461;52.066;5.194;2022-07-01T03:56:17;101605.0;;;14.19;92.73
68474;BME280;55461;52.066;5.194;2022-07-01T03:58:04;101607.0;;;14.24;92.38
68474;BME280;55461;52.066;5.194;2022-07-01T03:59:51;101613.0;;;14.21;92.46
68474;BME280;55461;52.066;5.194;2022-07-01T04:01:37;101620.0;;;14.12;92.87
68474;BME280;55461;52.066;5.194;2022-07-01T04:03:23;101623.0;;;14.21;92.63
68474;BME280;55461;52.066;5.194;2022-07-01T04:05:09;101619.0;;;14.26;92.19
68474;BME280;55461;52.066;5.194;2022-07-01T04:08:45;101623.0;;;14.23;92.59
68474;BME280;55461;52.066;5.194;2022-07-01T04:10:33;101630.0;;;14.24;92.42
68474;BME280;55461;52.066;5.194;2022-07-01T04:12:21;101632.0;;;14.22;92.6
68474;BME280;55461;52.066;5.194;2022-07-01T04:14:07;101634.0;;;14.15;93.05
68474;BME280;55461;52.066;5.194;2022-07-01T04:15:54;101634.0;;;14.29;92.54
68474;BME280;55461;52.066;5.194;2022-07-01T04:17:42;101634.0;;;14.42;91.79
68474;BME280;55461;52.066;5.194;2022-07-01T04:24:18;101645.0;;;14.39;91.54
68474;BME280;55461;52.066;5.194;2022-07-01T04:26:04;101648.0;;;14.44;91.36
68474;BME280;55461;52.066;5.194;2022-07-01T04:31:23;101653.0;;;14.32;91.62
68474;BME280;55461;52.066;5.194;2022-07-01T04:33:09;101656.0;;;14.33;91.7
68474;BME280;55461;52.066;5.194;2022-07-01T04:34:55;101661.0;;;14.37;91.82
68474;BME280;55461;52.066;5.194;2022-07-01T04:36:42;101655.0;;;14.31;91.98
68474;BME280;55461;52.066;5.194;2022-07-01T04:38:28;101652.0;;;14.31;92.07
68474;BME280;55461;52.066;5.194;2022-07-01T04:42:01;101657.0;;;14.32;92.01
68474;BME280;55461;52.066;5.194;2022-07-01T04:43:47;101660.0;;;14.32;92.02
68474;BME280;55461;52.066;5.194;2022-07-01T04:45:33;101652.0;;;14.38;91.46
68474;BME280;55461;52.066;5.194;2022-07-01T04:47:21;101653.0;;;14.34;91.57
68474;BME280;55461;52.066;5.194;2022-07-01T04:49:08;101651.0;;;14.32;91.75
68474;BME280;55461;52.066;5.194;2022-07-01T04:50:55;101652.0;;;14.38;91.65
68474;BME280;55461;52.066;5.194;2022-07-01T04:54:27;101648.0;;;14.31;92.05
68474;BME280;55461;52.066;5.194;2022-07-01T04:56:14;101649.0;;;14.35;91.97
68474;BME280;55461;52.066;5.194;2022-07-01T04:58:00;101655.0;;;14.31;92.27
68474;BME280;55461;52.066;5.194;2022-07-01T04:59:46;101664.0;;;14.31;92.5
68474;BME280;55461;52.066;5.194;2022-07-01T05:01:33;101665.0;;;14.32;92.38
68474;BME280;55461;52.066;5.194;2022-07-01T05:05:06;101660.0;;;14.44;92.22
68474;BME280;55461;52.066;5.194;2022-07-01T05:06:52;101663.0;;;14.41;92.4
68474;BME280;55461;52.066;5.194;2022-07-01T05:08:38;101666.0;;;14.45;92.37
68474;BME280;55461;52.066;5.194;2022-07-01T05:10:25;101671.0;;;14.57;91.78
68474;BME280;55461;52.066;5.194;2022-07-01T05:12:12;101677.0;;;14.66;91.97
68474;BME280;55461;52.066;5.194;2022-07-01T05:13:58;101677.0;;;14.63;91.86
68474;BME280;55461;52.066;5.194;2022-07-01T05:21:56;101672.0;;;14.68;91.53
68474;BME280;55461;52.066;5.194;2022-07-01T05:23:43;101661.0;;;14.65;91.65
68474;BME280;55461;52.066;5.194;2022-07-01T05:25:29;101660.0;;;14.75;91.46
68474;BME280;55461;52.066;5.194;2022-07-01T05:27:15;101661.0;;;14.7;91.39
68474;BME280;55461;52.066;5.194;2022-07-01T05:29:02;101660.0;;;14.76;91.35
68474;BME280;55461;52.066;5.194;2022-07-01T05:30:48;101669.0;;;14.8;91.32
68474;BME280;55461;52.066;5.194;2022-07-01T05:34:21;101669.0;;;14.78;91.23
68474;BME280;55461;52.066;5.194;2022-07-01T05:36:08;101664.0;;;14.83;90.37
68474;BME280;55461;52.066;5.194;2022-07-01T05:37:55;101662.0;;;14.87;90.32
68474;BME280;55461;52.066;5.194;2022-07-01T05:39:41;101663.0;;;14.87;90.11
68474;BME280;55461;52.066;5.194;2022-07-01T05:41:27;101667.0;;;14.81;90.44
68474;BME280;55461;52.066;5.194;2022-07-01T05:43:14;101670.0;;;14.76;90.78
68474;BME280;55461;52.066;5.194;2022-07-01T05:46:47;101677.0;;;14.8;90.27
68474;BME280;55461;52.066;5.194;2022-07-01T05:48:33;101678.0;;;14.89;90.3
68474;BME280;55461;52.066;5.194;2022-07-01T05:50:19;101677.0;;;14.83;90.45
68474;BME280;55461;52.066;5.194;2022-07-01T05:52:06;101674.0;;;14.83;90.56
68474;BME280;55461;52.066;5.194;2022-07-01T05:53:52;101676.0;;;14.93;90.06
68474;BME280;55461;52.066;5.194;2022-07-01T05:57:27;101670.0;;;14.94;90.06
68474;BME280;55461;52.066;5.194;2022-07-01T05:59:14;101666.0;;;14.98;89.77
68474;BME280;55461;52.066;5.194;2022-07-01T06:01:02;101668.0;;;14.96;90.02
68474;BME280;55461;52.066;5.194;2022-07-01T06:02:48;101672.0;;;15.02;89.86
68474;BME280;55461;52.066;5.194;2022-07-01T06:04:35;101675.0;;;15.06;89.68
68474;BME280;55461;52.066;5.194;2022-07-01T06:06:21;101671.0;;;14.97;90.11
68474;BME280;55461;52.066;5.194;2022-07-01T06:09:55;101672.0;;;15.12;89.21
68474;BME280;55461;52.066;5.194;2022-07-01T06:11:42;101669.0;;;15.19;89.41
68474;BME280;55461;52.066;5.194;2022-07-01T06:13:29;101677.0;;;15.21;89.03
68474;BME280;55461;52.066;5.194;2022-07-01T06:15:16;101670.0;;;15.12;89.21
68474;BME280;55461;52.066;5.194;2022-07-01T06:17:03;101667.0;;;15.05;89.33
68474;BME280;55461;52.066;5.194;2022-07-01T06:18:50;101674.0;;;15.08;89.01
68474;BME280;55461;52.066;5.194;2022-07-01T06:22:23;101672.0;;;15.06;89.19
68474;BME280;55461;52.066;5.194;2022-07-01T06:24:09;101673.0;;;15.18;88.33
68474;BME280;55461;52.066;5.194;2022-07-01T06:25:55;101669.0;;;15.15;88.62
68474;BME280;55461;52.066;5.194;2022-07-01T06:27:43;101665.0;;;15.2;88.85
68474;BME280;55461;52.066;5.194;2022-07-01T06:29:31;101662.0;;;15.37;88.84
68474;BME280;55461;52.066;5.194;2022-07-01T06:33:03;101658.0;;;15.44;88.67
68474;BME280;55461;52.066;5.194;2022-07-01T06:34:49;101658.0;;;15.59;88.96
68474;BME280;55461;52.066;5.194;2022-07-01T06:36:35;101660.0;;;15.55;88.86
68474;BME280;55461;52.066;5.194;2022-07-01T06:38:22;101664.0;;;15.49;88.0
68474;BME280;55461;52.066;5.194;2022-07-01T06:40:09;101653.0;;;15.51;89.05
68474;BME280;55461;52.066;5.194;2022-07-01T06:45:31;101653.0;;;15.91;87.72
68474;BME280;55461;52.066;5.194;2022-07-01T06:47:17;101653.0;;;15.83;87.08
68474;BME280;55461;52.066;5.194;2022-07-01T06:49:04;101649.0;;;15.84;86.6
68474;BME280;55461;52.066;5.194;2022-07-01T06:50:51;101648.0;;;15.85;86.41
68474;BME280;55461;52.066;5.194;2022-07-01T06:52:38;101653.0;;;16.09;85.99
68474;BME280;55461;52.066;5.194;2022-07-01T06:54:24;101649.0;;;15.88;85.79
68474;BME280;55461;52.066;5.194;2022-07-01T06:57:57;101655.0;;;16.12;85.58
68474;BME280;55461;52.066;5.194;2022-07-01T06:59:44;101652.0;;;16.02;85.11
68474;BME280;55461;52.066;5.194;2022-07-01T07:01:30;101649.0;;;16.18;84.47
68474;BME280;55461;52.066;5.194;2022-07-01T07:03:17;101652.0;;;16.14;83.78
68474;BME280;55461;52.066;5.194;2022-07-01T07:05:03;101653.0;;;16.32;83.5
68474;BME280;55461;52.066;5.194;2022-07-01T07:08:38;101658.0;;;16.36;83.96
68474;BME280;55461;52.066;5.194;2022-07-01T07:10:25;101661.0;;;16.16;82.52
68474;BME280;55461;52.066;5.194;2022-07-01T07:12:11;101658.0;;;16.23;83.23
68474;BME280;55461;52.066;5.194;2022-07-01T07:13:57;101669.0;;;16.25;82.8
68474;BME280;55461;52.066;5.194;2022-07-01T07:15:43;101662.0;;;16.27;82.99
68474;BME280;55461;52.066;5.194;2022-07-01T07:17:31;101671.0;;;16.38;82.07
68474;BME280;55461;52.066;5.194;2022-07-01T07:21:04;101674.0;;;16.53;81.86
68474;BME280;55461;52.066;5.194;2022-07-01T07:22:51;101681.0;;;16.45;81.47
68474;BME280;55461;52.066;5.194;2022-07-01T07:24:38;101678.0;;;16.55;81.23
68474;BME280;55461;52.066;5.194;2022-07-01T07:26:24;101678.0;;;16.78;81.59
68474;BME280;55461;52.066;5.194;2022-07-01T07:28:12;101685.0;;;16.9;81.69
68474;BME280;55461;52.066;5.194;2022-07-01T07:29:59;101688.0;;;17.12;79.69
68474;BME280;55461;52.066;5.194;2022-07-01T07:33:31;101694.0;;;17.11;78.52
68474;BME280;55461;52.066;5.194;2022-07-01T07:35:17;101700.0;;;17.27;78.19
68474;BME280;55461;52.066;5.194;2022-07-01T07:37:04;101707.0;;;17.46;79.33
68474;BME280;55461;52.066;5.194;2022-07-01T07:38:51;101711.0;;;17.36;77.19
68474;BME280;55461;52.066;5.194;2022-07-01T07:40:37;101715.0;;;17.36;76.55
68474;BME280;55461;52.066;5.194;2022-07-01T07:44:10;101709.0;;;17.53;77.31
68474;BME280;55461;52.066;5.194;2022-07-01T07:45:56;101705.0;;;17.5;75.3
68474;BME280;55461;52.066;5.194;2022-07-01T07:47:43;101702.0;;;17.12;74.53
68474;BME280;55461;52.066;5.194;2022-07-01T07:49:31;101705.0;;;17.12;75.08
68474;BME280;55461;52.066;5.194;2022-07-01T07:51:18;101697.0;;;17.18;74.53
68474;BME280;55461;52.066;5.194;2022-07-01T07:53:05;101694.0;;;17.28;75.34
68474;BME280;55461;52.066;5.194;2022-07-01T07:56:38;101695.0;;;17.27;75.55
68474;BME280;55461;52.066;5.194;2022-07-01T07:58:25;101698.0;;;17.41;74.88
68474;BME280;55461;52.066;5.194;2022-07-01T08:00:12;101690.0;;;17.39;73.5
68474;BME280;55461;52.066;5.194;2022-07-01T08:01:59;101695.0;;;17.57;74.12
68474;BME280;55461;52.066;5.194;2022-07-01T08:03:45;101700.0;;;17.64;71.97
68474;BME280;55461;52.066;5.194;2022-07-01T08:05:32;101703.0;;;17.88;72.02
68474;BME280;55461;52.066;5.194;2022-07-01T08:09:05;101709.0;;;17.91;71.38
68474;BME280;55461;52.066;5.194;2022-07-01T08:10:52;101705.0;;;17.95;70.08
68474;BME280;55461;52.066;5.194;2022-07-01T08:12:38;101709.0;;;18.16;70.69
68474;BME280;55461;52.066;5.194;2022-07-01T08:14:26;101717.0;;;18.16;71.19
68474;BME280;55461;52.066;5.194;2022-07-01T08:16:14;101711.0;;;18.09;69.22
68474;BME280;55461;52.066;5.194;2022-07-01T08:19:46;101714.0;;;18.16;68.77
68474;BME280;55461;52.066;5.194;2022-07-01T08:21:33;101723.0;;;18.12;70.03
68474;BME280;55461;52.066;5.194;2022-07-01T08:23:20;101718.0;;;18.18;69.08
68474;BME280;55461;52.066;5.194;2022-07-01T08:25:08;101715.0;;;18.23;70.56
68474;BME280;55461;52.066;5.194;2022-07-01T08:26:55;101717.0;;;18.43;70.31
68474;BME280;55461;52.066;5.194;2022-07-01T08:28:41;101717.0;;;18.45;69.12
68474;BME280;55461;52.066;5.194;2022-07-01T08:32:15;101728.0;;;18.48;67.89
68474;BME280;55461;52.066;5.194;2022-07-01T08:34:02;101730.0;;;18.55;68.09
68474;BME280;55461;52.066;5.194;2022-07-01T08:35:49;101736.0;;;18.63;65.44
68474;BME280;55461;52.066;5.194;2022-07-01T08:37:35;101738.0;;;18.7;65.08
68474;BME280;55461;52.066;5.194;2022-07-01T08:39:22;101739.0;;;18.75;64.19
68474;BME280;55461;52.066;5.194;2022-07-01T08:41:08;101738.0;;;18.75;64.39
68474;BME280;55461;52.066;5.194;2022-07-01T08:44:43;101739.0;;;18.93;63.77
68474;BME280;55461;52.066;5.194;2022-07-01T08:46:30;101741.0;;;19.11;65.39
68474;BME280;55461;52.066;5.194;2022-07-01T08:48:17;101741.0;;;18.95;64.69
68474;BME280;55461;52.066;5.194;2022-07-01T08:50:04;101752.0;;;19.16;64.56
68474;BME280;55461;52.066;5.194;2022-07-01T08:51:51;101752.0;;;18.63;62.45
68474;BME280;55461;52.066;5.194;2022-07-01T08:53:37;101755.0;;;18.46;63.04
68474;BME280;55461;52.066;5.194;2022-07-01T08:57:14;101756.0;;;18.27;62.0
68474;BME280;55461;52.066;5.194;2022-07-01T08:59:07;101763.0;;;18.25;62.96
68474;BME280;55461;52.066;5.194;2022-07-01T09:01:11;101766.0;;;18.11;63.34
68474;BME280;55461;52.066;5.194;2022-07-01T09:03:00;101766.0;;;18.25;65.16
68474;BME280;55461;52.066;5.194;2022-07-01T09:05:04;101762.0;;;18.5;65.0
68474;BME280;55461;52.066;5.194;2022-07-01T09:06:51;101761.0;;;18.71;65.03
68474;BME280;55461;52.066;5.194;2022-07-01T09:08:37;101769.0;;;18.53;61.87
68474;BME280;55461;52.066;5.194;2022-07-01T09:10:24;101774.0;;;18.62;62.24
68474;BME280;55461;52.066;5.194;2022-07-01T09:14:06;101775.0;;;18.36;61.91
68474;BME280;55461;52.066;5.194;2022-07-01T09:15:55;101766.0;;;18.23;61.4
68474;BME280;55461;52.066;5.194;2022-07-01T09:17:42;101758.0;;;18.36;62.06
68474;BME280;55461;52.066;5.194;2022-07-01T09:19:30;101756.0;;;18.57;63.25
68474;BME280;55461;52.066;5.194;2022-07-01T09:21:27;101763.0;;;18.7;62.08
68474;BME280;55461;52.066;5.194;2022-07-01T09:23:16;101771.0;;;18.81;62.25
68474;BME280;55461;52.066;5.194;2022-07-01T09:25:12;101775.0;;;19.0;60.75
68474;BME280;55461;52.066;5.194;2022-07-01T09:28:52;101769.0;;;19.16;59.41
68474;BME280;55461;52.066;5.194;2022-07-01T09:30:41;101766.0;;;19.11;58.52
68474;BME280;55461;52.066;5.194;2022-07-01T09:32:30;101766.0;;;19.18;58.2
68474;BME280;55461;52.066;5.194;2022-07-01T09:34:16;101765.0;;;19.27;59.1
68474;BME280;55461;52.066;5.194;2022-07-01T09:36:04;101765.0;;;19.27;58.37
68474;BME280;55461;52.066;5.194;2022-07-01T09:37:55;101770.0;;;19.34;59.12
68474;BME280;55461;52.066;5.194;2022-07-01T09:39:43;101767.0;;;19.34;57.88
68474;BME280;55461;52.066;5.194;2022-07-01T09:43:24;101767.0;;;19.38;57.35
68474;BME280;55461;52.066;5.194;2022-07-01T09:45:11;101775.0;;;19.55;56.94
68474;BME280;55461;52.066;5.194;2022-07-01T09:46:58;101774.0;;;19.68;55.61
68474;BME280;55461;52.066;5.194;2022-07-01T09:48:47;101777.0;;;19.64;54.45
68474;BME280;55461;52.066;5.194;2022-07-01T09:50:36;101785.0;;;19.52;53.71
68474;BME280;55461;52.066;5.194;2022-07-01T09:52:23;101776.0;;;19.39;52.16
68474;BME280;55461;52.066;5.194;2022-07-01T09:55:59;101781.0;;;19.56;54.67
68474;BME280;55461;52.066;5.194;2022-07-01T09:57:46;101780.0;;;19.7;54.85
68474;BME280;55461;52.066;5.194;2022-07-01T09:59:32;101781.0;;;19.75;54.63
68474;BME280;55461;52.066;5.194;2022-07-01T10:01:18;101784.0;;;19.57;54.41
68474;BME280;55461;52.066;5.194;2022-07-01T10:03:07;101786.0;;;19.68;54.53
68474;BME280;55461;52.066;5.194;2022-07-01T10:04:57;101782.0;;;19.66;54.06
68474;BME280;55461;52.066;5.194;2022-07-01T10:07:20;101783.0;;;19.75;55.22
68474;BME280;55461;52.066;5.194;2022-07-01T10:09:26;101776.0;;;19.68;54.31
68474;BME280;55461;52.066;5.194;2022-07-01T10:12:26;101782.0;;;19.61;53.89
68474;BME280;55461;52.066;5.194;2022-07-01T10:14:30;101791.0;;;19.82;55.04
68474;BME280;55461;52.066;5.194;2022-07-01T10:16:17;101796.0;;;19.86;52.06
68474;BME280;55461;52.066;5.194;2022-07-01T10:18:05;101793.0;;;19.82;51.98
68474;BME280;55461;52.066;5.194;2022-07-01T10:19:54;101798.0;;;19.93;52.57
68474;BME280;55461;52.066;5.194;2022-07-01T10:21:41;101790.0;;;20.14;52.81
68474;BME280;55461;52.066;5.194;2022-07-01T10:25:38;101803.0;;;20.09;54.12
68474;BME280;55461;52.066;5.194;2022-07-01T10:27:29;101805.0;;;19.86;52.78
68474;BME280;55461;52.066;5.194;2022-07-01T10:29:32;101810.0;;;19.64;52.5
68474;BME280;55461;52.066;5.194;2022-07-01T10:31:35;101815.0;;;19.53;52.11
68474;BME280;55461;52.066;5.194;2022-07-01T10:33:39;101812.0;;;19.18;52.15
68474;BME280;55461;52.066;5.194;2022-07-01T10:35:27;101815.0;;;19.28;54.09
68474;BME280;55461;52.066;5.194;2022-07-01T10:37:16;101818.0;;;19.29;51.94
68474;BME280;55461;52.066;5.194;2022-07-01T10:39:16;101807.0;;;19.28;50.59
68474;BME280;55461;52.066;5.194;2022-07-01T10:41:22;101817.0;;;19.48;51.36
68474;BME280;55461;52.066;5.194;2022-07-01T10:43:09;101808.0;;;19.43;51.78
68474;BME280;55461;52.066;5.194;2022-07-01T10:45:11;101814.0;;;19.48;50.66
68474;BME280;55461;52.066;5.194;2022-07-01T10:47:02;101813.0;;;19.48;50.66
68474;BME280;55461;52.066;5.194;2022-07-01T10:48:50;101813.0;;;19.61;50.03
68474;BME280;55461;52.066;5.194;2022-07-01T10:52:24;101823.0;;;19.79;51.0
68474;BME280;55461;52.066;5.194;2022-07-01T10:55:59;101824.0;;;19.87;50.74
68474;BME280;55461;52.066;5.194;2022-07-01T10:57:45;101819.0;;;19.91;50.62
68474;BME280;55461;52.066;5.194;2022-07-01T11:01:18;101813.0;;;20.12;50.84
68474;BME280;55461;52.066;5.194;2022-07-01T11:05:03;101816.0;;;20.09;48.15
68474;BME280;55461;52.066;5.194;2022-07-01T11:06:54;101807.0;;;20.2;47.65
68474;BME280;55461;52.066;5.194;2022-07-01T11:08:47;101805.0;;;20.28;49.71
68474;BME280;55461;52.066;5.194;2022-07-01T11:10:34;101814.0;;;20.04;47.28
68474;BME280;55461;52.066;5.194;2022-07-01T11:12:22;101812.0;;;19.95;49.06
68474;BME280;55461;52.066;5.194;2022-07-01T11:14:09;101809.0;;;19.95;48.74
68474;BME280;55461;52.066;5.194;2022-07-01T11:15:56;101816.0;;;20.06;49.09
68474;BME280;55461;52.066;5.194;2022-07-01T11:19:35;101819.0;;;20.18;49.62
68474;BME280;55461;52.066;5.194;2022-07-01T11:21:23;101817.0;;;20.3;49.33
68474;BME280;55461;52.066;5.194;2022-07-01T11:23:12;101817.0;;;20.28;48.78